Time;durP1;ratioP1;P1;durP2;ratioP2;P2;SDS_P1;SDS_P2;PMS_P1;PMS_P2;Temp;Humidity;BMP_temperature;BMP_pressure;BME280_temperature;BME280_humidity;BME280_pressure;Samples;Min_cycle;Max_cycle;Signal;HPM_P1;HPM_P2
2021/08/17 00:01:09;;;;;;;;;;;;;;;24.76;50.85;100472.81;5044855;28;1782;-44
2021/08/17 00:03:35;;;;;;;;;;;;;;;24.73;50.45;100470.44;5046773;28;1988;-42
2021/08/17 00:06:03;;;;;;;;;;;;;;;24.70;50.60;100468.13;5050422;28;1607;-42
2021/08/17 00:08:29;;;;;;;;;;;;;;;24.70;50.35;100470.81;5049292;28;1466;-43
2021/08/17 00:10:56;;;;;;;;;;;;;;;24.71;49.91;100464.38;5041227;28;1749;-43
2021/08/17 00:13:24;;;;;;;;;;;;;;;24.71;50.36;100470.66;5043280;28;992;-43
2021/08/17 00:15:50;;;;;;;;;;;;;;;24.70;49.71;100462.72;5042883;28;1981;-43
2021/08/17 00:18:17;;;;;;;;;;;;;;;24.71;49.77;100458.97;5040758;28;1520;-43
2021/08/17 00:20:44;;;;;;;;;;;;;;;24.72;50.10;100455.25;5039980;28;1506;-42
2021/08/17 00:23:11;;;;;;;;;;;;;;;24.68;50.09;100449.38;5048104;28;1637;-43
2021/08/17 00:25:42;;;;;;;;;;;;;;;24.73;50.33;100457.78;5043061;28;1975;-43
2021/08/17 00:28:08;;;;;;;;;;;;;;;24.74;49.84;100467.56;5043052;28;1066;-43
2021/08/17 00:30:36;;;;;;;;;;;;;;;24.67;50.21;100458.53;5047866;28;1955;-43
2021/08/17 00:33:03;;;;;;;;;;;;;;;24.69;49.85;100466.44;5047538;28;1548;-43
2021/08/17 00:35:30;;;;;;;;;;;;;;;24.68;49.91;100443.13;5055064;28;1697;-43
2021/08/17 00:37:56;;;;;;;;;;;;;;;24.64;49.80;100449.94;5052251;28;1325;-43
2021/08/17 00:40:22;;;;;;;;;;;;;;;24.64;49.55;100452.63;5048894;28;1353;-43
2021/08/17 00:42:49;;;;;;;;;;;;;;;24.67;49.71;100463.94;5046571;28;1762;-43
2021/08/17 00:45:19;;;;;;;;;;;;;;;24.68;50.00;100464.75;5046575;28;1918;-43
2021/08/17 00:47:47;;;;;;;;;;;;;;;24.74;49.42;100458.63;5042756;28;1553;-42
2021/08/17 00:50:14;;;;;;;;;;;;;;;24.78;49.69;100455.38;5056473;28;1749;-42
2021/08/17 00:52:40;;;;;;;;;;;;;;;24.75;49.62;100454.88;5044690;28;1906;-43
2021/08/17 00:55:08;;;;;;;;;;;;;;;24.69;49.88;100456.47;5054316;28;2184;-43
2021/08/17 00:57:34;;;;;;;;;;;;;;;24.70;49.82;100454.59;5043316;28;1413;-43
2021/08/17 01:00:01;;;;;;;;;;;;;;;24.68;49.88;100462.06;5052567;28;1616;-42
2021/08/17 01:02:27;;;;;;;;;;;;;;;24.63;49.04;100453.63;5039244;28;1659;-43
2021/08/17 01:04:55;;;;;;;;;;;;;;;24.66;49.40;100451.41;5056169;28;1902;-42
2021/08/17 01:07:21;;;;;;;;;;;;;;;24.61;49.68;100453.81;5043141;28;1779;-43
2021/08/17 01:09:48;;;;;;;;;;;;;;;24.63;49.04;100445.53;5044220;28;1577;-43
2021/08/17 01:12:14;;;;;;;;;;;;;;;24.61;49.04;100451.97;5047753;28;1713;-42
2021/08/17 01:14:42;;;;;;;;;;;;;;;24.59;49.54;100448.59;5048327;28;1589;-43
2021/08/17 01:17:09;;;;;;;;;;;;;;;24.59;49.09;100440.50;5048164;28;1760;-43
2021/08/17 01:19:35;;;;;;;;;;;;;;;24.61;49.49;100448.41;5046502;28;1445;-43
2021/08/17 01:22:04;;;;;;;;;;;;;;;24.57;49.36;100447.94;5045585;28;1951;-43
2021/08/17 01:24:30;;;;;;;;;;;;;;;24.58;49.37;100449.59;5047389;28;1988;-42
2021/08/17 01:26:58;;;;;;;;;;;;;;;24.57;49.37;100439.84;5039846;28;1750;-43
2021/08/17 01:29:25;;;;;;;;;;;;;;;24.63;49.00;100450.94;5039674;28;1577;-43
2021/08/17 01:31:51;;;;;;;;;;;;;;;24.55;49.22;100439.19;5042035;28;1788;-42
2021/08/17 01:34:18;;;;;;;;;;;;;;;24.54;48.93;100445.59;5062314;28;1669;-42
2021/08/17 01:36:45;;;;;;;;;;;;;;;24.56;49.12;100446.25;5048041;28;1981;-42
2021/08/17 01:39:12;;;;;;;;;;;;;;;24.56;48.93;100437.31;5046315;28;1895;-43
2021/08/17 01:41:38;;;;;;;;;;;;;;;24.62;48.97;100444.69;5048847;28;1729;-43
2021/08/17 01:44:07;;;;;;;;;;;;;;;24.65;49.33;100443.47;5044286;28;1907;-42
2021/08/17 01:46:34;;;;;;;;;;;;;;;24.51;48.61;100443.25;5047642;28;1554;-43
2021/08/17 01:49:04;;;;;;;;;;;;;;;24.57;49.01;100442.53;5060892;28;1577;-42
2021/08/17 01:51:32;;;;;;;;;;;;;;;24.54;49.08;100437.47;5063966;28;1682;-43
2021/08/17 01:54:00;;;;;;;;;;;;;;;24.50;49.04;100446.97;5070182;28;1667;-43
2021/08/17 01:56:28;;;;;;;;;;;;;;;24.46;48.93;100452.88;5059067;28;1771;-42
2021/08/17 01:58:56;;;;;;;;;;;;;;;24.41;48.44;100442.59;5063612;28;1590;-43
2021/08/17 02:01:26;;;;;;;;;;;;;;;24.35;49.19;100448.72;5173089;22;3697;-42
2021/08/17 02:03:54;;;;;;;;;;;;;;;24.30;48.79;100430.34;5061211;28;1852;-42
2021/08/17 02:06:22;;;;;;;;;;;;;;;24.32;48.90;100440.97;5060012;28;1728;-42
2021/08/17 02:08:57;;;;;;;;;;;;;;;24.33;49.18;100435.41;5058113;28;1503;-42
2021/08/17 02:11:25;;;;;;;;;;;;;;;24.45;48.75;100425.00;5066614;28;1576;-42
2021/08/17 02:13:52;;;;;;;;;;;;;;;24.46;48.43;100424.00;5062912;28;1522;-42
2021/08/17 02:16:20;;;;;;;;;;;;;;;24.44;48.09;100426.03;5065440;28;1752;-42
2021/08/17 02:18:48;;;;;;;;;;;;;;;24.40;48.03;100413.91;5067975;28;1697;-42
2021/08/17 02:21:23;;;;;;;;;;;;;;;24.38;48.49;100421.34;5065274;28;1602;-42
2021/08/17 02:23:50;;;;;;;;;;;;;;;24.35;48.88;100410.88;5060677;28;1533;-43
2021/08/17 02:26:19;;;;;;;;;;;;;;;24.31;48.63;100423.06;5062342;28;1973;-43
2021/08/17 02:28:49;;;;;;;;;;;;;;;24.21;49.15;100432.28;5058111;28;1531;-43
2021/08/17 02:31:19;;;;;;;;;;;;;;;24.07;49.19;100421.38;5028064;28;1730;-42
2021/08/17 02:33:59;;;;;;;;;;;;;;;24.04;49.45;100425.28;5067029;28;1593;-42
2021/08/17 02:36:27;;;;;;;;;;;;;;;24.18;49.06;100423.69;5070862;28;1731;-42
2021/08/17 02:38:54;;;;;;;;;;;;;;;24.20;48.78;100418.94;5048595;28;1661;-42
2021/08/17 02:41:28;;;;;;;;;;;;;;;24.26;49.15;100412.81;5063460;28;1745;-42
2021/08/17 02:43:59;;;;;;;;;;;;;;;24.27;48.43;100433.41;5080076;28;1691;-42
2021/08/17 02:46:26;;;;;;;;;;;;;;;24.28;49.17;100432.38;5055109;28;1965;-42
2021/08/17 02:48:58;;;;;;;;;;;;;;;24.21;48.90;100415.19;5055438;28;1722;-42
2021/08/17 02:51:25;;;;;;;;;;;;;;;24.27;48.44;100419.06;5054073;28;1792;-42
2021/08/17 02:53:52;;;;;;;;;;;;;;;24.37;48.60;100419.66;5059444;28;1799;-42
2021/08/17 02:56:19;;;;;;;;;;;;;;;24.40;49.55;100430.94;5070487;28;1786;-42
2021/08/17 02:58:46;;;;;;;;;;;;;;;24.40;49.15;100428.25;5054598;28;1785;-44
2021/08/17 03:01:13;;;;;;;;;;;;;;;24.31;49.46;100423.94;5056320;28;1557;-43
2021/08/17 03:03:39;;;;;;;;;;;;;;;24.41;48.72;100426.38;5061272;28;2894;-42
2021/08/17 03:06:07;;;;;;;;;;;;;;;24.32;49.61;100432.88;5074118;28;1979;-43
2021/08/17 03:08:33;;;;;;;;;;;;;;;24.27;49.20;100427.16;5056492;28;1658;-42
2021/08/17 03:11:00;;;;;;;;;;;;;;;24.24;49.27;100433.78;5064064;28;1818;-43
2021/08/17 03:13:27;;;;;;;;;;;;;;;24.30;49.53;100434.91;5058834;28;1764;-43
2021/08/17 03:15:53;;;;;;;;;;;;;;;24.27;49.55;100419.06;5062006;28;1054;-42
2021/08/17 03:18:20;;;;;;;;;;;;;;;24.30;48.77;100435.75;5060465;28;1754;-42
2021/08/17 03:20:46;;;;;;;;;;;;;;;24.30;49.37;100434.91;5074320;28;1824;-42
2021/08/17 03:23:16;;;;;;;;;;;;;;;24.25;49.13;100437.31;5061685;28;1604;-42
2021/08/17 03:25:43;;;;;;;;;;;;;;;24.21;48.69;100437.69;5057219;28;1976;-43
2021/08/17 03:28:09;;;;;;;;;;;;;;;24.24;48.86;100428.38;5021775;28;11779;-42
2021/08/17 03:30:36;;;;;;;;;;;;;;;24.18;49.10;100432.63;5029057;28;1613;-42
2021/08/17 03:33:03;;;;;;;;;;;;;;;24.21;49.13;100431.41;5032894;28;1509;-42
2021/08/17 03:35:30;;;;;;;;;;;;;;;24.25;49.31;100442.72;5033139;28;1586;-42
2021/08/17 03:37:56;;;;;;;;;;;;;;;24.30;49.38;100449.25;5033042;28;1079;-42
2021/08/17 03:40:24;;;;;;;;;;;;;;;24.26;49.50;100441.69;5033316;28;1966;-42
2021/08/17 03:42:51;;;;;;;;;;;;;;;24.24;49.00;100446.44;5029743;28;1830;-43
2021/08/17 03:45:20;;;;;;;;;;;;;;;24.20;49.52;100446.78;5029198;28;1902;-42
2021/08/17 03:47:47;;;;;;;;;;;;;;;24.17;49.11;100455.25;5031600;28;1565;-42
2021/08/17 03:50:15;;;;;;;;;;;;;;;24.20;49.47;100440.56;5025364;28;1474;-42
2021/08/17 03:52:42;;;;;;;;;;;;;;;24.34;48.87;100457.88;5031853;28;1815;-42
2021/08/17 03:55:09;;;;;;;;;;;;;;;24.19;49.02;100447.81;5031606;28;1800;-43
2021/08/17 03:57:37;;;;;;;;;;;;;;;24.32;48.46;100459.91;5024638;28;1666;-42
2021/08/17 04:00:04;;;;;;;;;;;;;;;24.40;48.31;100446.34;5031721;28;1586;-42
2021/08/17 04:02:30;;;;;;;;;;;;;;;24.41;48.26;100439.91;5021717;28;1780;-42
2021/08/17 04:04:57;;;;;;;;;;;;;;;24.45;47.94;100454.72;5012192;28;2056;-42
2021/08/17 04:07:23;;;;;;;;;;;;;;;24.43;48.68;100435.16;5011774;28;1835;-42
2021/08/17 04:09:50;;;;;;;;;;;;;;;24.52;48.11;100444.09;5010080;28;1670;-43
2021/08/17 04:12:16;;;;;;;;;;;;;;;24.57;48.16;100437.13;5009725;28;1628;-43
2021/08/17 04:14:44;;;;;;;;;;;;;;;24.68;48.03;100449.38;5006754;28;1578;-42
2021/08/17 04:17:10;;;;;;;;;;;;;;;24.56;48.09;100435.44;5008625;28;1453;-43
2021/08/17 04:19:39;;;;;;;;;;;;;;;24.49;48.06;100439.00;5003178;28;1370;-42
2021/08/17 04:22:05;;;;;;;;;;;;;;;24.56;48.38;100440.84;5008939;28;1774;-42
2021/08/17 04:24:32;;;;;;;;;;;;;;;24.69;48.53;100440.25;5008935;28;1859;-43
2021/08/17 04:26:58;;;;;;;;;;;;;;;24.72;48.52;100439.03;5010800;28;1902;-42
2021/08/17 04:29:25;;;;;;;;;;;;;;;24.71;48.92;100440.03;5005569;28;1719;-42
2021/08/17 04:31:53;;;;;;;;;;;;;;;24.73;48.64;100424.47;5003562;28;1784;-42
2021/08/17 04:34:19;;;;;;;;;;;;;;;24.69;47.64;100428.56;5012170;28;1620;-42
2021/08/17 04:36:47;;;;;;;;;;;;;;;24.63;47.98;100429.31;5012201;28;2153;-42
2021/08/17 04:39:13;;;;;;;;;;;;;;;24.64;48.07;100434.53;5011437;28;1753;-44
2021/08/17 04:41:40;;;;;;;;;;;;;;;24.62;49.16;100428.47;5006546;28;1601;-43
2021/08/17 04:44:06;;;;;;;;;;;;;;;24.68;49.46;100429.63;5010715;28;1526;-42
2021/08/17 04:46:33;;;;;;;;;;;;;;;24.67;49.22;100430.63;5012224;28;1975;-42
2021/08/17 04:49:01;;;;;;;;;;;;;;;24.62;49.44;100431.16;5011351;28;1450;-42
2021/08/17 04:51:28;;;;;;;;;;;;;;;24.62;49.27;100428.47;5011746;28;1634;-42
2021/08/17 04:53:55;;;;;;;;;;;;;;;24.59;49.42;100418.88;5012119;28;1770;-42
2021/08/17 04:56:21;;;;;;;;;;;;;;;24.71;47.94;100431.94;5009672;28;1541;-42
2021/08/17 04:58:47;;;;;;;;;;;;;;;24.71;50.40;100429.22;5008824;28;1439;-42
2021/08/17 05:01:16;;;;;;;;;;;;;;;24.85;51.06;100427.59;5012287;28;1437;-42
2021/08/17 05:03:43;;;;;;;;;;;;;;;24.86;51.62;100424.72;5015860;28;1578;-42
2021/08/17 05:06:11;;;;;;;;;;;;;;;24.91;52.96;100422.31;5018209;28;1975;-42
2021/08/17 05:08:38;;;;;;;;;;;;;;;24.95;52.48;100412.81;5029865;28;1635;-42
2021/08/17 05:11:05;;;;;;;;;;;;;;;24.94;52.81;100421.94;5027809;28;1494;-42
2021/08/17 05:13:31;;;;;;;;;;;;;;;24.94;53.19;100413.81;5026394;28;1507;-43
2021/08/17 05:15:58;;;;;;;;;;;;;;;25.07;53.40;100412.34;5025238;28;1440;-42
2021/08/17 05:18:25;;;;;;;;;;;;;;;24.93;53.32;100409.44;5031236;28;1907;-42
2021/08/17 05:20:51;;;;;;;;;;;;;;;24.96;53.11;100410.94;5031346;28;1386;-42
2021/08/17 05:23:19;;;;;;;;;;;;;;;25.13;53.09;100415.16;5024981;28;1498;-44
2021/08/17 05:25:47;;;;;;;;;;;;;;;25.22;58.02;100418.66;5024709;28;1910;-42
2021/08/17 05:28:15;;;;;;;;;;;;;;;25.18;58.84;100411.91;5021646;28;1364;-42
2021/08/17 05:30:41;;;;;;;;;;;;;;;25.24;55.75;100407.66;5027662;28;1472;-42
2021/08/17 05:33:14;;;;;;;;;;;;;;;25.45;53.42;100423.16;5029308;28;1814;-42
2021/08/17 05:35:43;;;;;;;;;;;;;;;25.43;53.94;100406.25;5029728;28;1702;-42
2021/08/17 05:38:09;;;;;;;;;;;;;;;25.37;55.53;100416.81;5029897;28;1548;-42
2021/08/17 05:40:37;;;;;;;;;;;;;;;25.31;52.94;100422.13;5026181;28;1621;-42
2021/08/17 05:43:04;;;;;;;;;;;;;;;25.25;52.63;100418.28;5031040;28;1586;-42
2021/08/17 05:45:31;;;;;;;;;;;;;;;25.25;52.82;100412.88;5025328;28;1910;-43
2021/08/17 05:47:57;;;;;;;;;;;;;;;25.29;53.72;100413.34;5029329;28;1685;-42
2021/08/17 05:50:23;;;;;;;;;;;;;;;25.28;53.69;100412.50;5031040;28;1449;-43
2021/08/17 05:52:50;;;;;;;;;;;;;;;25.38;53.83;100433.88;5031291;28;1422;-42
2021/08/17 05:55:16;;;;;;;;;;;;;;;25.34;53.88;100411.75;5028872;28;1796;-42
2021/08/17 13:19:08;;;;;;;;;;;;;;;25.92;57.77;100110.38;4758277;27;10001771;-44
2021/08/17 13:21:34;;;;;;;;;;;;;;;25.94;56.75;100114.59;5115728;28;1880;-45
2021/08/17 13:24:01;;;;;;;;;;;;;;;25.98;56.94;100112.28;5113005;28;1594;-45
2021/08/17 13:26:28;;;;;;;;;;;;;;;25.99;57.40;100112.09;5115795;28;1985;-45
2021/08/17 13:28:54;;;;;;;;;;;;;;;25.98;57.28;100109.59;5112178;28;1562;-44
2021/08/17 13:31:20;;;;;;;;;;;;;;;25.99;56.73;100108.56;5113179;28;1830;-44
2021/08/17 13:33:48;;;;;;;;;;;;;;;26.04;57.42;100111.50;5113915;28;1534;-44
2021/08/17 13:36:16;;;;;;;;;;;;;;;26.04;57.08;100103.38;5114193;28;1676;-44
2021/08/17 13:38:44;;;;;;;;;;;;;;;26.02;56.92;100096.50;5110566;28;1956;-44
2021/08/17 13:41:11;;;;;;;;;;;;;;;26.05;56.79;100098.81;5118564;27;1673;-45
2021/08/17 13:43:38;;;;;;;;;;;;;;;26.05;57.41;100107.78;5108325;28;1628;-44
2021/08/17 13:46:04;;;;;;;;;;;;;;;26.04;57.63;100100.66;5109420;28;1803;-44
2021/08/17 13:48:32;;;;;;;;;;;;;;;26.06;57.35;100101.31;5112094;28;1945;-44
2021/08/17 13:50:58;;;;;;;;;;;;;;;26.03;56.78;100096.28;5112363;27;1597;-45
2021/08/17 13:53:26;;;;;;;;;;;;;;;26.06;57.45;100095.88;5117941;28;1602;-45
2021/08/17 13:55:53;;;;;;;;;;;;;;;26.03;57.47;100101.72;5108064;28;1627;-45
2021/08/17 13:58:19;;;;;;;;;;;;;;;26.05;56.78;100093.41;5109617;28;1648;-44
2021/08/17 14:00:47;;;;;;;;;;;;;;;26.07;56.94;100102.16;5107195;28;1538;-45
2021/08/17 14:03:13;;;;;;;;;;;;;;;26.05;57.55;100083.38;5110100;28;1451;-44
2021/08/17 14:05:40;;;;;;;;;;;;;;;26.04;57.33;100081.69;5114160;28;1200;-44
2021/08/17 14:08:06;;;;;;;;;;;;;;;26.07;57.28;100094.03;5116921;28;2261;-45
2021/08/17 14:10:34;;;;;;;;;;;;;;;26.04;57.10;100092.53;5105768;28;1529;-44
2021/08/17 14:13:01;;;;;;;;;;;;;;;26.06;57.21;100090.47;5109659;28;1670;-44
2021/08/17 14:15:28;;;;;;;;;;;;;;;26.05;57.63;100099.66;5111522;28;1987;-44
2021/08/17 14:17:54;;;;;;;;;;;;;;;26.08;57.64;100092.97;5112129;28;1767;-44
2021/08/17 14:20:21;;;;;;;;;;;;;;;26.06;56.85;100084.22;5099692;28;1897;-45
2021/08/17 14:22:47;;;;;;;;;;;;;;;26.07;56.75;100091.31;5094555;28;1653;-44
2021/08/17 14:25:14;;;;;;;;;;;;;;;26.08;56.79;100093.81;5100674;28;1732;-45
2021/08/17 14:27:42;;;;;;;;;;;;;;;26.09;57.69;100100.91;5094867;28;1933;-45
2021/08/17 14:30:13;;;;;;;;;;;;;;;26.07;57.43;100094.88;5101181;28;1571;-44
2021/08/17 14:32:39;;;;;;;;;;;;;;;26.08;57.32;100098.41;5098305;28;1389;-45
2021/08/17 14:35:06;;;;;;;;;;;;;;;26.07;57.02;100086.72;5102948;28;1763;-45
2021/08/17 14:37:32;;;;;;;;;;;;;;;26.09;57.71;100098.22;5100211;28;1645;-42
2021/08/17 14:39:59;;;;;;;;;;;;;;;26.07;57.64;100086.72;5092289;28;1669;-42
2021/08/17 14:42:25;;;;;;;;;;;;;;;26.07;57.66;100075.91;5102229;28;1665;-42
2021/08/17 14:44:53;;;;;;;;;;;;;;;26.07;57.93;100081.31;5095808;28;1373;-42
2021/08/17 14:47:20;;;;;;;;;;;;;;;26.06;57.78;100082.34;5095911;28;1988;-42
2021/08/17 14:49:46;;;;;;;;;;;;;;;26.09;57.53;100090.09;5099082;28;1864;-42
2021/08/17 14:52:14;;;;;;;;;;;;;;;26.06;57.32;100090.47;5099275;28;1871;-44
2021/08/17 14:54:41;;;;;;;;;;;;;;;26.09;57.66;100081.94;5091952;28;1605;-42
2021/08/17 14:57:07;;;;;;;;;;;;;;;26.08;57.74;100071.31;5101457;28;2177;-42
2021/08/17 14:59:34;;;;;;;;;;;;;;;26.07;57.86;100075.91;5099722;28;1733;-42
2021/08/17 15:02:01;;;;;;;;;;;;;;;26.08;57.93;100076.72;5091637;28;2267;-42
2021/08/17 15:04:28;;;;;;;;;;;;;;;26.06;57.16;100063.38;5091348;28;1980;-42
2021/08/17 15:06:54;;;;;;;;;;;;;;;26.06;57.80;100068.78;5098197;28;1980;-43
2021/08/17 15:09:21;;;;;;;;;;;;;;;26.05;57.30;100069.84;5096718;28;2335;-42
2021/08/17 15:11:47;;;;;;;;;;;;;;;26.08;58.05;100069.44;5101246;28;1687;-42
2021/08/17 15:14:14;;;;;;;;;;;;;;;26.06;57.09;100066.09;5094655;28;2232;-42
2021/08/17 15:16:41;;;;;;;;;;;;;;;26.09;57.13;100067.56;5097979;28;1679;-42
2021/08/17 15:19:11;;;;;;;;;;;;;;;26.09;58.09;100056.75;5093806;28;1540;-42
2021/08/17 15:21:37;;;;;;;;;;;;;;;26.05;57.10;100056.28;5093479;28;1335;-44
2021/08/17 15:24:04;;;;;;;;;;;;;;;26.04;57.25;100054.59;5100005;28;1731;-42
2021/08/17 15:26:30;;;;;;;;;;;;;;;26.08;57.54;100066.72;5096461;28;1737;-42
2021/08/17 15:28:57;;;;;;;;;;;;;;;26.07;57.14;100059.63;5103520;28;1913;-42
2021/08/17 15:31:23;;;;;;;;;;;;;;;26.02;58.04;100053.97;5095616;28;1567;-42
2021/08/17 15:33:50;;;;;;;;;;;;;;;26.07;57.35;100062.34;5097583;28;1535;-42
2021/08/17 15:36:18;;;;;;;;;;;;;;;26.07;57.29;100065.06;5100239;28;1122;-42
2021/08/17 15:38:44;;;;;;;;;;;;;;;26.05;58.09;100053.59;5095510;28;2197;-42
2021/08/17 15:41:11;;;;;;;;;;;;;;;26.09;58.08;100068.41;5098781;28;1566;-42
2021/08/17 15:43:37;;;;;;;;;;;;;;;26.04;57.37;100054.59;5100108;28;1630;-44
2021/08/17 15:46:04;;;;;;;;;;;;;;;26.03;57.89;100047.53;5096937;28;1623;-44
2021/08/17 15:48:30;;;;;;;;;;;;;;;26.04;57.96;100051.91;5093223;28;1898;-45
2021/08/17 15:50:57;;;;;;;;;;;;;;;26.07;57.73;100058.81;5102686;28;1080;-44
2021/08/17 15:53:24;;;;;;;;;;;;;;;26.04;57.84;100038.34;5098528;28;1662;-45
2021/08/17 15:55:51;;;;;;;;;;;;;;;26.07;57.87;100062.34;5097423;28;1555;-44
2021/08/17 15:58:17;;;;;;;;;;;;;;;26.06;58.02;100049.81;5096422;28;1538;-44
2021/08/17 16:00:45;;;;;;;;;;;;;;;26.04;57.60;100059.19;5098373;28;1926;-44
2021/08/17 16:03:11;;;;;;;;;;;;;;;26.05;58.17;100064.41;5098162;28;1631;-44
2021/08/17 16:05:38;;;;;;;;;;;;;;;26.08;57.53;100066.72;5089508;28;1432;-44
2021/08/17 16:08:05;;;;;;;;;;;;;;;26.04;58.05;100060.03;5093740;28;2244;-44
2021/08/17 16:10:33;;;;;;;;;;;;;;;26.06;58.01;100066.09;5094303;28;1800;-45
2021/08/17 16:13:00;;;;;;;;;;;;;;;26.05;58.22;100067.13;5092292;28;1497;-44
2021/08/17 16:15:27;;;;;;;;;;;;;;;26.07;57.66;100062.34;5095324;28;1497;-44
2021/08/17 16:17:54;;;;;;;;;;;;;;;26.09;58.09;100073.81;5095080;28;1569;-44
2021/08/17 16:20:22;;;;;;;;;;;;;;;26.05;58.07;100053.59;5097977;28;1460;-44
2021/08/17 16:22:48;;;;;;;;;;;;;;;26.06;58.32;100068.78;5094370;28;1940;-44
2021/08/17 16:25:15;;;;;;;;;;;;;;;26.04;58.13;100054.59;5094079;28;1623;-44
2021/08/17 16:27:43;;;;;;;;;;;;;;;26.05;58.47;100064.41;5097200;28;1905;-44
2021/08/17 16:30:10;;;;;;;;;;;;;;;26.09;58.50;100078.41;5092648;28;1993;-44
2021/08/17 16:32:37;;;;;;;;;;;;;;;26.06;57.69;100068.78;5097874;28;1533;-46
2021/08/17 16:35:03;;;;;;;;;;;;;;;26.03;58.43;100055.66;5094568;28;1875;-44
2021/08/17 16:37:30;;;;;;;;;;;;;;;26.06;57.58;100063.38;5095858;28;1936;-47
2021/08/17 16:39:56;;;;;;;;;;;;;;;26.08;58.29;100077.56;5092615;28;1973;-44
2021/08/17 16:42:23;;;;;;;;;;;;;;;26.08;58.26;100080.25;5101063;28;1576;-44
2021/08/17 16:44:51;;;;;;;;;;;;;;;26.03;58.38;100063.78;5089450;28;1904;-44
2021/08/17 16:47:18;;;;;;;;;;;;;;;26.05;57.79;100066.31;5097264;28;2188;-44
2021/08/17 16:49:44;;;;;;;;;;;;;;;26.05;57.89;100067.13;5098856;28;1969;-44
2021/08/17 16:52:11;;;;;;;;;;;;;;;26.06;58.12;100068.78;5096756;28;1631;-44
2021/08/17 16:54:37;;;;;;;;;;;;;;;26.05;58.38;100067.13;5099189;28;1508;-44
2021/08/17 16:57:04;;;;;;;;;;;;;;;26.03;58.47;100071.91;5092967;28;1955;-44
2021/08/17 16:59:30;;;;;;;;;;;;;;;26.03;57.95;100052.13;5098070;28;1920;-45
2021/08/17 17:01:58;;;;;;;;;;;;;;;26.03;58.62;100074.63;5096301;28;1612;-44
2021/08/17 17:04:25;;;;;;;;;;;;;;;26.04;57.77;100081.69;5095296;28;1583;-44
2021/08/17 17:06:51;;;;;;;;;;;;;;;26.07;57.67;100085.91;5098045;28;1349;-45
2021/08/17 17:09:18;;;;;;;;;;;;;;;26.01;58.16;100071.28;5094362;28;2209;-44
2021/08/17 17:11:45;;;;;;;;;;;;;;;26.05;57.68;100077.16;5101392;28;1883;-44
2021/08/17 17:14:11;;;;;;;;;;;;;;;26.05;58.50;100077.97;5091894;28;1959;-44
2021/08/17 17:16:38;;;;;;;;;;;;;;;26.06;58.14;100079.63;5100955;28;1547;-43
2021/08/17 17:19:07;;;;;;;;;;;;;;;26.14;57.87;100106.59;5096721;28;1491;-45
2021/08/17 17:21:35;;;;;;;;;;;;;;;26.10;57.78;100102.59;5086885;28;1721;-43
2021/08/17 17:24:02;;;;;;;;;;;;;;;26.08;57.91;100111.94;5098939;28;1343;-43
2021/08/17 17:26:28;;;;;;;;;;;;;;;26.04;58.30;100105.25;5095906;28;1380;-43
2021/08/17 17:28:56;;;;;;;;;;;;;;;26.07;55.27;100104.88;5103761;28;1905;-43
2021/08/17 17:31:22;;;;;;;;;;;;;;;26.02;57.98;100116.28;5089866;28;2114;-43
2021/08/17 17:33:50;;;;;;;;;;;;;;;25.23;59.09;100111.84;5097601;28;1609;-43
2021/08/17 17:36:22;;;;;;;;;;;;;;;24.22;58.62;100134.03;5091890;28;1185;-45
2021/08/17 17:38:49;;;;;;;;;;;;;;;23.90;58.57;100131.69;5092355;28;1793;-43
2021/08/17 17:41:17;;;;;;;;;;;;;;;23.68;57.85;100128.81;5095505;28;1772;-43
2021/08/17 17:43:44;;;;;;;;;;;;;;;23.68;57.55;100134.19;5097810;28;1586;-44
2021/08/17 17:46:12;;;;;;;;;;;;;;;23.62;56.58;100145.72;5099827;28;1628;-44
2021/08/17 17:48:42;;;;;;;;;;;;;;;23.52;56.86;100155.94;5094835;28;1909;-44
2021/08/17 17:51:08;;;;;;;;;;;;;;;23.38;55.98;100166.47;5091690;28;1332;-44
2021/08/17 17:53:38;;;;;;;;;;;;;;;23.41;55.01;100155.31;5097838;28;1697;-44
2021/08/17 17:56:06;;;;;;;;;;;;;;;23.94;55.06;100147.31;5109952;28;1236;-44
2021/08/17 17:58:33;;;;;;;;;;;;;;;24.04;56.27;100159.75;5096432;28;2057;-44
2021/08/17 18:01:01;;;;;;;;;;;;;;;24.10;57.40;100159.84;5100007;27;1417;-44
2021/08/17 18:03:31;;;;;;;;;;;;;;;24.38;57.55;100151.09;5105986;28;1510;-44
2021/08/17 18:05:59;;;;;;;;;;;;;;;24.39;58.90;100158.16;5095407;28;1088;-43
2021/08/17 18:08:26;;;;;;;;;;;;;;;24.39;59.65;100159.03;5095572;28;1907;-43
2021/08/17 18:10:56;;;;;;;;;;;;;;;24.34;59.98;100156.03;5101453;28;1546;-43
2021/08/17 18:13:24;;;;;;;;;;;;;;;24.28;60.22;100167.59;5107278;27;1498;-43
2021/08/17 18:15:50;;;;;;;;;;;;;;;24.36;60.82;100180.19;5113456;28;1744;-43
2021/08/17 18:18:17;;;;;;;;;;;;;;;24.43;60.60;100186.50;5096219;28;1563;-42
2021/08/17 18:20:48;;;;;;;;;;;;;;;24.27;61.11;100179.41;5095321;28;1118;-43
2021/08/17 18:23:16;;;;;;;;;;;;;;;24.14;62.27;100165.72;5104421;28;1925;-44
2021/08/17 18:25:43;;;;;;;;;;;;;;;24.25;62.07;100175.22;5107188;28;1946;-43
2021/08/17 18:28:15;;;;;;;;;;;;;;;24.55;60.88;100185.06;5095663;28;1909;-42
2021/08/17 18:33:26;;;;;;;;;;;;;;;24.68;62.30;100170.88;5092491;28;2240;-40
2021/08/17 18:35:53;;;;;;;;;;;;;;;24.94;64.42;100175.78;5104139;28;2537;-41
2021/08/17 18:38:23;;;;;;;;;;;;;;;25.10;62.80;100171.19;5105915;28;1833;-41
2021/08/17 18:41:04;;;;;;;;;;;;;;;25.08;63.81;100181.38;5101871;28;1613;-41
2021/08/17 18:43:36;;;;;;;;;;;;;;;25.12;64.09;100166.44;5108876;28;1562;-40
2021/08/17 18:46:07;;;;;;;;;;;;;;;25.23;66.53;100176.81;5107639;28;1488;-39
2021/08/17 18:48:36;;;;;;;;;;;;;;;25.43;64.31;100173.44;5108304;28;1910;-38
2021/08/17 18:51:06;;;;;;;;;;;;;;;25.62;63.74;100178.22;5106961;28;1679;-38
2021/08/17 18:53:33;;;;;;;;;;;;;;;25.70;61.75;100178.09;5104876;28;1753;-38
2021/08/17 18:56:03;;;;;;;;;;;;;;;25.68;59.06;100172.03;5103781;28;1679;-38
2021/08/17 18:58:45;;;;;;;;;;;;;;;25.78;59.55;100193.38;5106308;28;1660;-37
2021/08/17 19:01:17;;;;;;;;;;;;;;;25.78;60.57;100196.94;5111221;27;1577;-37
2021/08/17 19:03:44;;;;;;;;;;;;;;;25.82;60.80;100193.81;5111571;28;1447;-38
2021/08/17 19:06:12;;;;;;;;;;;;;;;25.86;60.28;100189.69;5093391;28;1474;-38
2021/08/17 19:08:39;;;;;;;;;;;;;;;25.84;60.46;100198.00;5099817;28;1910;-38
2021/08/17 19:11:07;;;;;;;;;;;;;;;25.81;58.87;100182.16;5107246;28;1661;-38
2021/08/17 19:13:34;;;;;;;;;;;;;;;25.80;59.54;100173.22;5102529;28;1625;-38
2021/08/17 19:16:02;;;;;;;;;;;;;;;25.82;58.53;100183.81;5105358;28;1607;-38
2021/08/17 19:18:32;;;;;;;;;;;;;;;25.90;58.49;100199.09;5099879;28;1985;-39
2021/08/17 19:20:59;;;;;;;;;;;;;;;25.80;59.47;100197.59;5114328;27;1488;-39
2021/08/17 19:23:26;;;;;;;;;;;;;;;25.78;58.98;100180.69;5113019;28;1871;-39
2021/08/17 19:25:54;;;;;;;;;;;;;;;25.66;53.27;100193.06;5105236;28;1805;-38
2021/08/17 19:28:23;;;;;;;;;;;;;;;25.72;60.24;100176.03;5101477;28;1977;-39
2021/08/17 19:30:51;;;;;;;;;;;;;;;25.62;59.37;100191.75;5105191;28;1636;-39
2021/08/17 19:33:18;;;;;;;;;;;;;;;25.70;52.85;100194.34;5093832;28;1688;-38
2021/08/17 19:35:53;;;;;;;;;;;;;;;25.76;58.97;100177.31;5101758;28;1942;-38
2021/08/17 19:38:20;;;;;;;;;;;;;;;25.73;59.92;100191.25;5109092;28;1499;-38
2021/08/17 19:40:47;;;;;;;;;;;;;;;25.65;60.39;100191.38;5110871;28;1815;-38
2021/08/17 19:43:14;;;;;;;;;;;;;;;25.68;59.10;100185.56;5106598;27;1429;-38
2021/08/17 19:45:44;;;;;;;;;;;;;;;25.68;58.51;100196.41;5094678;28;1632;-38
2021/08/17 19:48:13;;;;;;;;;;;;;;;25.77;56.24;100194.41;5102742;28;1758;-38
2021/08/17 19:50:40;;;;;;;;;;;;;;;25.69;58.52;100186.44;5097074;28;1902;-38
2021/08/17 19:53:21;;;;;;;;;;;;;;;25.73;56.73;100193.97;5097221;28;2054;-38
2021/08/17 19:55:47;;;;;;;;;;;;;;;25.67;56.51;100185.78;5106401;28;1683;-38
2021/08/17 19:58:15;;;;;;;;;;;;;;;25.63;53.86;100188.03;5097668;28;1362;-38
2021/08/17 20:00:44;;;;;;;;;;;;;;;25.59;53.39;100173.22;5100215;28;1432;-38
2021/08/17 20:03:11;;;;;;;;;;;;;;;25.64;54.36;100199.69;5094555;28;1668;-39
2021/08/17 20:05:39;;;;;;;;;;;;;;;25.65;54.90;100196.81;5103999;28;1421;-38
2021/08/17 20:08:34;;;;;;;;;;;;;;;25.79;53.77;100198.59;5102572;28;1518;-37
2021/08/17 20:11:06;;;;;;;;;;;;;;;25.87;51.58;100191.38;5100412;28;1816;-37